Airfield :







YOU CAN JOIN US ON...

 
LOGIN :

Register | Disclaimer

   EN    FR    IT 

 









Legend :    VFR   Marginal VFR   IFR   Intensive IFR   Very Intensive IFR
Visi :
Ceiling :
>= 8 km
>= 3000ft
5 to 8 km
1000 to 3000 ft
1500m to 5 km
500 to 1000 ft
800 to 1500m
200 to 500 ft
< 800m
< 200 ft
Symbols :   Thunderstorms  Fog  Heavy snow  Heavy precipitations  Wind > 20 kt







- Airport Elevation : 108 ft
- IATA code : YAY


CYAY - St Anthony

CURRENT METAR :
  • 201538Z AUTO 15008KT 6SM -RA BR BKN008 BKN016 BKN034 OVC065 17/17 A2961 RMK SLP030 DENSITY ALT 700FT

EXPIRED METARs :
  • 201527Z AUTO 16010KT 3SM -RA BR FEW002 BKN007 BKN017 OVC065 17/17 A2961 RMK SLP030 DENSITY ALT 700FT
  • 201500Z AUTO 14011KT 4SM -RA BR BKN003 BKN055 OVC069 17/17 A2963 RMK SLP034 DENSITY ALT 700FT
  • 201448Z AUTO 14010G15KT 4SM RA BR BKN007 BKN055 OVC073 17/17 A2963 RMK SLP035 DENSITY ALT 700FT
  • 201419Z AUTO 14009KT 5SM RA BR FEW009 BKN070 OVC088 17/17 A2964 RMK SLP040 DENSITY ALT 600FT
  • 201400Z AUTO 14012KT 8SM -RA FEW037 BKN065 BKN082 OVC100 17/17 A2965 RMK SLP042 DENSITY ALT 600FT
  • 201321Z AUTO 14011KT 6SM -RA BR SCT004 OVC070 17/17 A2965 RMK SLP043 DENSITY ALT 700FT
  • 201310Z AUTO 13011KT 6SM -RA BR BKN004 OVC075 17/17 A2966 RMK SLP045 DENSITY ALT 600FT

TAF TAF CYAY
Valid from the 20 at 14:00 until the 21 at 02:00 UTC


201338Z 2014/2102 14011KT 3SM -RA BR BKN004 OVC070
TEMPO 2014/2017 P6SM NSW SCT004 OVC070
FM201700 23015G25KT 5SM -SHRA BR BKN015 OVC030
TEMPO 2017/2021 P6SM NSW SCT015 BKN030
FM202100 27015G25KT P6SM FEW020 BKN050
TEMPO 2021/2024 BKN020 BKN050
FM210000 28012KT P6SM FEW020 SCT050 RMK FCST BASED ON AUTO OBS. NXT FCST BY 202000Z
No reported NOTAMs for that airfield.



MET'MAP, your aeronautical weather chart ! - Copyright ORBIFLY December 2007 - Disclaimer

ORBIFLY MET'MAP TEAM :

Programming & Development : Alexandra Zaïnal
Concept & Development : Baudouin d'Aumeries
Co-Development & Prog : Marc-Olivier Méhu
Technical & hardware support : Manuel Goepfert

Contact : metmap@orbifly.com




SOURCES & CREDITS :

   NOAA